Startpagina
METAR-TAF:

METAR-TAF

Vliegvelden :

Jabalpur, India

breedte: 23-10-54N, lengte: 80-03-31E, hoogte: 495 m

Actueel weer

Dit bericht is 40 minuten geleden gemaakt, om 11:00 UTC
Wind 8 kt uit het westen met uitschieters tot 18 kt
Temperatuur 27°C
Vochtigheid 84%
Druk 1000 hPa
Zicht: 4000 m
Weinig wolken op 1000 ft
Verspreide wolken op 2000 ft
Gebroken wolken op 8000 ft
Heiigheid

METAR: VAJB 191100Z 28008G18KT 4000 HZ FEW010 SCT020 BKN080 27/24 Q1000

Tijdstip: 17:10 (11:40 UTC)


TAF: ontbreekt

Waarnemingen en weersverwachtingen van meer dan 4000 vliegvelden (METAR en TAF).

De beschikbare stations zijn de gele en rode punten op de kaart.

Ga met uw muis naar het station om de naam te zien.

Klik dan om waarnemingen en weersverwachtingen te zien.

kaart wijzigen: klik op de groene knoppen met een zwart kruis om in te zoomen, op de groene knop met een streepje om uit te zoomen of op de groene pijlen voor aangrenzende kaarten.


METAR-TAF: